sensor_id;sensor_type;location;lat;lon;timestamp;P1;durP1;ratioP1;P2;durP2;ratioP2
72127;SDS011;60000;51.030;7.024;2022-10-31T00:00:28;9.40;;;3.43;;
72127;SDS011;60000;51.030;7.024;2022-10-31T00:02:53;14.37;;;3.63;;
72127;SDS011;60000;51.030;7.024;2022-10-31T00:05:18;9.07;;;3.53;;
72127;SDS011;60000;51.030;7.024;2022-10-31T00:07:44;12.00;;;3.17;;
72127;SDS011;60000;51.030;7.024;2022-10-31T00:10:09;13.20;;;3.67;;
72127;SDS011;60000;51.030;7.024;2022-10-31T00:12:34;8.30;;;3.60;;
72127;SDS011;60000;51.030;7.024;2022-10-31T00:15:00;9.90;;;3.50;;
72127;SDS011;60000;51.030;7.024;2022-10-31T00:17:25;8.38;;;3.03;;
72127;SDS011;60000;51.030;7.024;2022-10-31T00:19:51;9.50;;;3.70;;
72127;SDS011;60000;51.030;7.024;2022-10-31T00:22:16;9.37;;;3.40;;
72127;SDS011;60000;51.030;7.024;2022-10-31T00:24:41;10.33;;;4.07;;
72127;SDS011;60000;51.030;7.024;2022-10-31T00:27:07;7.93;;;3.37;;
72127;SDS011;60000;51.030;7.024;2022-10-31T00:29:32;11.03;;;4.07;;
72127;SDS011;60000;51.030;7.024;2022-10-31T00:31:57;8.88;;;3.72;;
72127;SDS011;60000;51.030;7.024;2022-10-31T00:34:23;12.20;;;4.10;;
72127;SDS011;60000;51.030;7.024;2022-10-31T00:36:48;9.80;;;3.30;;
72127;SDS011;60000;51.030;7.024;2022-10-31T00:39:13;12.23;;;3.73;;
72127;SDS011;60000;51.030;7.024;2022-10-31T00:41:39;12.17;;;3.80;;
72127;SDS011;60000;51.030;7.024;2022-10-31T00:44:04;8.77;;;3.80;;
72127;SDS011;60000;51.030;7.024;2022-10-31T00:46:29;10.97;;;3.80;;
72127;SDS011;60000;51.030;7.024;2022-10-31T00:48:55;11.10;;;3.47;;
72127;SDS011;60000;51.030;7.024;2022-10-31T00:51:20;12.97;;;4.00;;
72127;SDS011;60000;51.030;7.024;2022-10-31T00:53:45;8.13;;;3.30;;
72127;SDS011;60000;51.030;7.024;2022-10-31T00:56:11;8.00;;;3.85;;
72127;SDS011;60000;51.030;7.024;2022-10-31T00:58:36;10.20;;;3.60;;
72127;SDS011;60000;51.030;7.024;2022-10-31T01:01:02;11.07;;;4.50;;
72127;SDS011;60000;51.030;7.024;2022-10-31T01:03:29;9.55;;;3.97;;
72127;SDS011;60000;51.030;7.024;2022-10-31T01:08:27;11.57;;;3.80;;
72127;SDS011;60000;51.030;7.024;2022-10-31T01:13:37;10.57;;;3.67;;
72127;SDS011;60000;51.030;7.024;2022-10-31T01:16:04;10.65;;;4.00;;
72127;SDS011;60000;51.030;7.024;2022-10-31T01:18:30;10.65;;;3.72;;
72127;SDS011;60000;51.030;7.024;2022-10-31T01:21:00;11.33;;;3.70;;
72127;SDS011;60000;51.030;7.024;2022-10-31T01:23:32;11.75;;;4.13;;
72127;SDS011;60000;51.030;7.024;2022-10-31T01:26:20;10.07;;;3.57;;
72127;SDS011;60000;51.030;7.024;2022-10-31T01:28:46;12.90;;;3.42;;
72127;SDS011;60000;51.030;7.024;2022-10-31T01:31:15;9.55;;;3.30;;
72127;SDS011;60000;51.030;7.024;2022-10-31T01:33:42;8.68;;;3.40;;
72127;SDS011;60000;51.030;7.024;2022-10-31T01:36:10;7.40;;;3.00;;
72127;SDS011;60000;51.030;7.024;2022-10-31T01:38:57;12.87;;;3.30;;
72127;SDS011;60000;51.030;7.024;2022-10-31T01:41:26;9.48;;;3.60;;
72127;SDS011;60000;51.030;7.024;2022-10-31T01:43:54;8.60;;;3.60;;
72127;SDS011;60000;51.030;7.024;2022-10-31T01:46:31;11.20;;;3.30;;
72127;SDS011;60000;51.030;7.024;2022-10-31T01:49:02;9.77;;;3.35;;
72127;SDS011;60000;51.030;7.024;2022-10-31T01:51:31;10.97;;;4.20;;
72127;SDS011;60000;51.030;7.024;2022-10-31T01:54:01;10.95;;;3.47;;
72127;SDS011;60000;51.030;7.024;2022-10-31T01:56:30;10.70;;;3.70;;
72127;SDS011;60000;51.030;7.024;2022-10-31T01:58:59;8.60;;;3.30;;
72127;SDS011;60000;51.030;7.024;2022-10-31T02:01:26;9.15;;;4.25;;
72127;SDS011;60000;51.030;7.024;2022-10-31T02:03:52;10.33;;;3.47;;
72127;SDS011;60000;51.030;7.024;2022-10-31T02:06:26;15.00;;;3.92;;
72127;SDS011;60000;51.030;7.024;2022-10-31T02:08:54;9.93;;;3.40;;
72127;SDS011;60000;51.030;7.024;2022-10-31T02:11:22;12.77;;;3.58;;
72127;SDS011;60000;51.030;7.024;2022-10-31T02:13:47;10.93;;;3.80;;
72127;SDS011;60000;51.030;7.024;2022-10-31T02:16:13;14.53;;;4.60;;
72127;SDS011;60000;51.030;7.024;2022-10-31T02:18:38;10.85;;;3.42;;
72127;SDS011;60000;51.030;7.024;2022-10-31T02:21:06;9.00;;;3.37;;
72127;SDS011;60000;51.030;7.024;2022-10-31T02:26:51;9.07;;;3.42;;
72127;SDS011;60000;51.030;7.024;2022-10-31T02:29:31;10.25;;;3.40;;
72127;SDS011;60000;51.030;7.024;2022-10-31T02:37:49;10.25;;;3.58;;
72127;SDS011;60000;51.030;7.024;2022-10-31T02:43:54;9.20;;;3.70;;
72127;SDS011;60000;51.030;7.024;2022-10-31T02:47:01;8.32;;;3.13;;
72127;SDS011;60000;51.030;7.024;2022-10-31T02:51:57;8.90;;;3.42;;
72127;SDS011;60000;51.030;7.024;2022-10-31T02:54:23;8.75;;;3.45;;
72127;SDS011;60000;51.030;7.024;2022-10-31T02:56:54;13.50;;;3.72;;
72127;SDS011;60000;51.030;7.024;2022-10-31T02:59:23;9.23;;;3.58;;
72127;SDS011;60000;51.030;7.024;2022-10-31T03:01:53;10.90;;;3.60;;
72127;SDS011;60000;51.030;7.024;2022-10-31T03:04:31;10.35;;;3.55;;
72127;SDS011;60000;51.030;7.024;2022-10-31T03:07:11;11.80;;;3.72;;
72127;SDS011;60000;51.030;7.024;2022-10-31T03:10:02;9.10;;;3.60;;
72127;SDS011;60000;51.030;7.024;2022-10-31T03:12:38;11.82;;;3.70;;
72127;SDS011;60000;51.030;7.024;2022-10-31T03:15:21;10.15;;;3.55;;
72127;SDS011;60000;51.030;7.024;2022-10-31T03:18:04;11.20;;;4.05;;
72127;SDS011;60000;51.030;7.024;2022-10-31T03:20:37;10.48;;;3.58;;
72127;SDS011;60000;51.030;7.024;2022-10-31T03:23:07;9.77;;;3.78;;
72127;SDS011;60000;51.030;7.024;2022-10-31T03:25:38;13.32;;;4.07;;
72127;SDS011;60000;51.030;7.024;2022-10-31T03:28:04;12.02;;;4.35;;
72127;SDS011;60000;51.030;7.024;2022-10-31T03:30:32;9.88;;;3.75;;
72127;SDS011;60000;51.030;7.024;2022-10-31T03:32:59;9.48;;;3.80;;
72127;SDS011;60000;51.030;7.024;2022-10-31T03:35:29;9.38;;;3.47;;
72127;SDS011;60000;51.030;7.024;2022-10-31T03:37:57;11.05;;;4.30;;
72127;SDS011;60000;51.030;7.024;2022-10-31T03:40:25;11.25;;;3.72;;
72127;SDS011;60000;51.030;7.024;2022-10-31T03:42:54;16.65;;;4.95;;
72127;SDS011;60000;51.030;7.024;2022-10-31T03:45:26;10.77;;;3.92;;
72127;SDS011;60000;51.030;7.024;2022-10-31T03:47:54;8.75;;;4.10;;
72127;SDS011;60000;51.030;7.024;2022-10-31T03:50:21;10.88;;;4.05;;
72127;SDS011;60000;51.030;7.024;2022-10-31T03:52:50;9.48;;;3.83;;
72127;SDS011;60000;51.030;7.024;2022-10-31T03:55:25;15.57;;;4.15;;
72127;SDS011;60000;51.030;7.024;2022-10-31T03:57:58;12.57;;;3.55;;
72127;SDS011;60000;51.030;7.024;2022-10-31T04:00:27;8.52;;;3.65;;
72127;SDS011;60000;51.030;7.024;2022-10-31T04:06:02;12.85;;;3.65;;
72127;SDS011;60000;51.030;7.024;2022-10-31T04:08:32;8.63;;;3.22;;
72127;SDS011;60000;51.030;7.024;2022-10-31T04:11:01;8.40;;;3.63;;
72127;SDS011;60000;51.030;7.024;2022-10-31T04:13:29;11.98;;;4.43;;
72127;SDS011;60000;51.030;7.024;2022-10-31T04:15:57;10.00;;;3.83;;
72127;SDS011;60000;51.030;7.024;2022-10-31T04:18:23;13.07;;;3.53;;
72127;SDS011;60000;51.030;7.024;2022-10-31T04:20:49;11.07;;;3.80;;
72127;SDS011;60000;51.030;7.024;2022-10-31T04:23:25;12.02;;;4.55;;
72127;SDS011;60000;51.030;7.024;2022-10-31T04:25:51;9.07;;;3.92;;
72127;SDS011;60000;51.030;7.024;2022-10-31T04:28:16;9.83;;;3.67;;
72127;SDS011;60000;51.030;7.024;2022-10-31T04:30:41;10.37;;;4.17;;
72127;SDS011;60000;51.030;7.024;2022-10-31T04:33:07;13.38;;;4.32;;
72127;SDS011;60000;51.030;7.024;2022-10-31T04:35:32;11.33;;;4.10;;
72127;SDS011;60000;51.030;7.024;2022-10-31T04:37:57;11.90;;;4.00;;
72127;SDS011;60000;51.030;7.024;2022-10-31T04:40:23;9.80;;;3.50;;
72127;SDS011;60000;51.030;7.024;2022-10-31T04:42:48;12.43;;;4.10;;
72127;SDS011;60000;51.030;7.024;2022-10-31T04:45:13;9.07;;;4.00;;
72127;SDS011;60000;51.030;7.024;2022-10-31T04:47:39;12.47;;;3.80;;
72127;SDS011;60000;51.030;7.024;2022-10-31T04:50:04;10.47;;;3.50;;
72127;SDS011;60000;51.030;7.024;2022-10-31T04:52:29;11.13;;;4.25;;
72127;SDS011;60000;51.030;7.024;2022-10-31T04:54:55;9.17;;;3.60;;
72127;SDS011;60000;51.030;7.024;2022-10-31T04:57:20;9.17;;;4.10;;
72127;SDS011;60000;51.030;7.024;2022-10-31T04:59:45;9.90;;;3.90;;
72127;SDS011;60000;51.030;7.024;2022-10-31T05:02:11;14.07;;;3.77;;
72127;SDS011;60000;51.030;7.024;2022-10-31T05:04:36;11.10;;;4.10;;
72127;SDS011;60000;51.030;7.024;2022-10-31T05:07:01;12.47;;;4.23;;
72127;SDS011;60000;51.030;7.024;2022-10-31T05:09:27;8.77;;;3.65;;
72127;SDS011;60000;51.030;7.024;2022-10-31T05:11:52;9.87;;;4.07;;
72127;SDS011;60000;51.030;7.024;2022-10-31T05:14:17;15.03;;;4.17;;
72127;SDS011;60000;51.030;7.024;2022-10-31T05:16:42;12.43;;;4.37;;
72127;SDS011;60000;51.030;7.024;2022-10-31T05:19:08;8.57;;;4.17;;
72127;SDS011;60000;51.030;7.024;2022-10-31T05:21:33;10.63;;;3.93;;
72127;SDS011;60000;51.030;7.024;2022-10-31T05:23:58;11.40;;;4.53;;
72127;SDS011;60000;51.030;7.024;2022-10-31T05:26:24;12.10;;;4.50;;
72127;SDS011;60000;51.030;7.024;2022-10-31T05:28:49;10.57;;;4.35;;
72127;SDS011;60000;51.030;7.024;2022-10-31T05:31:14;15.70;;;4.53;;
72127;SDS011;60000;51.030;7.024;2022-10-31T05:33:40;17.50;;;4.47;;
72127;SDS011;60000;51.030;7.024;2022-10-31T05:36:05;16.67;;;4.57;;
72127;SDS011;60000;51.030;7.024;2022-10-31T05:38:30;10.00;;;4.17;;
72127;SDS011;60000;51.030;7.024;2022-10-31T05:40:56;10.07;;;4.20;;
72127;SDS011;60000;51.030;7.024;2022-10-31T05:43:30;12.00;;;4.45;;
72127;SDS011;60000;51.030;7.024;2022-10-31T05:45:55;10.73;;;4.23;;
72127;SDS011;60000;51.030;7.024;2022-10-31T05:48:21;9.13;;;4.13;;
72127;SDS011;60000;51.030;7.024;2022-10-31T05:50:49;11.43;;;4.63;;
72127;SDS011;60000;51.030;7.024;2022-10-31T05:53:15;10.27;;;4.60;;
72127;SDS011;60000;51.030;7.024;2022-10-31T05:55:41;8.55;;;4.00;;
72127;SDS011;60000;51.030;7.024;2022-10-31T05:58:07;12.68;;;4.25;;
72127;SDS011;60000;51.030;7.024;2022-10-31T06:00:33;10.45;;;4.47;;
72127;SDS011;60000;51.030;7.024;2022-10-31T06:03:02;8.97;;;3.73;;
72127;SDS011;60000;51.030;7.024;2022-10-31T06:05:29;15.52;;;4.65;;
72127;SDS011;60000;51.030;7.024;2022-10-31T06:07:55;11.25;;;4.80;;
72127;SDS011;60000;51.030;7.024;2022-10-31T06:10:21;13.57;;;5.55;;
72127;SDS011;60000;51.030;7.024;2022-10-31T06:12:47;13.53;;;4.63;;
72127;SDS011;60000;51.030;7.024;2022-10-31T06:15:12;10.25;;;4.32;;
72127;SDS011;60000;51.030;7.024;2022-10-31T06:17:38;13.77;;;4.67;;
72127;SDS011;60000;51.030;7.024;2022-10-31T06:20:03;12.77;;;5.13;;
72127;SDS011;60000;51.030;7.024;2022-10-31T06:22:29;12.80;;;4.97;;
72127;SDS011;60000;51.030;7.024;2022-10-31T06:24:55;13.10;;;5.17;;
72127;SDS011;60000;51.030;7.024;2022-10-31T06:27:20;12.10;;;4.93;;
72127;SDS011;60000;51.030;7.024;2022-10-31T06:29:45;11.65;;;4.40;;
72127;SDS011;60000;51.030;7.024;2022-10-31T06:32:11;12.33;;;4.60;;
72127;SDS011;60000;51.030;7.024;2022-10-31T06:34:37;12.18;;;4.65;;
72127;SDS011;60000;51.030;7.024;2022-10-31T06:37:06;11.90;;;4.38;;
72127;SDS011;60000;51.030;7.024;2022-10-31T06:39:32;11.82;;;4.63;;
72127;SDS011;60000;51.030;7.024;2022-10-31T06:41:58;12.30;;;4.50;;
72127;SDS011;60000;51.030;7.024;2022-10-31T06:44:23;13.83;;;4.77;;
72127;SDS011;60000;51.030;7.024;2022-10-31T06:46:48;8.90;;;3.87;;
72127;SDS011;60000;51.030;7.024;2022-10-31T06:49:14;12.23;;;4.30;;
72127;SDS011;60000;51.030;7.024;2022-10-31T06:51:39;11.10;;;4.47;;
72127;SDS011;60000;51.030;7.024;2022-10-31T06:54:04;10.63;;;4.43;;
72127;SDS011;60000;51.030;7.024;2022-10-31T06:56:30;9.88;;;4.43;;
72127;SDS011;60000;51.030;7.024;2022-10-31T06:58:55;11.43;;;4.30;;
72127;SDS011;60000;51.030;7.024;2022-10-31T07:01:20;13.20;;;5.07;;
72127;SDS011;60000;51.030;7.024;2022-10-31T07:03:46;11.60;;;4.50;;
72127;SDS011;60000;51.030;7.024;2022-10-31T07:06:11;14.20;;;5.03;;
72127;SDS011;60000;51.030;7.024;2022-10-31T07:08:36;10.57;;;4.33;;
72127;SDS011;60000;51.030;7.024;2022-10-31T07:11:02;12.60;;;4.63;;
72127;SDS011;60000;51.030;7.024;2022-10-31T07:13:27;11.38;;;4.55;;
72127;SDS011;60000;51.030;7.024;2022-10-31T07:15:53;12.33;;;4.17;;
72127;SDS011;60000;51.030;7.024;2022-10-31T07:18:23;12.35;;;4.85;;
72127;SDS011;60000;51.030;7.024;2022-10-31T07:20:49;11.25;;;5.00;;
72127;SDS011;60000;51.030;7.024;2022-10-31T07:23:14;11.77;;;4.87;;
72127;SDS011;60000;51.030;7.024;2022-10-31T07:25:40;10.80;;;5.13;;
72127;SDS011;60000;51.030;7.024;2022-10-31T07:28:06;12.13;;;5.00;;
72127;SDS011;60000;51.030;7.024;2022-10-31T07:30:32;14.77;;;5.22;;
72127;SDS011;60000;51.030;7.024;2022-10-31T07:32:57;13.90;;;5.10;;
72127;SDS011;60000;51.030;7.024;2022-10-31T07:35:23;12.50;;;5.43;;
72127;SDS011;60000;51.030;7.024;2022-10-31T07:37:51;11.15;;;5.00;;
72127;SDS011;60000;51.030;7.024;2022-10-31T07:40:17;13.43;;;5.50;;
72127;SDS011;60000;51.030;7.024;2022-10-31T07:42:44;15.57;;;5.82;;
72127;SDS011;60000;51.030;7.024;2022-10-31T07:45:11;13.20;;;4.45;;
72127;SDS011;60000;51.030;7.024;2022-10-31T07:47:47;13.45;;;5.20;;
72127;SDS011;60000;51.030;7.024;2022-10-31T07:50:18;18.42;;;6.95;;
72127;SDS011;60000;51.030;7.024;2022-10-31T07:53:01;22.17;;;6.90;;
72127;SDS011;60000;51.030;7.024;2022-10-31T07:55:28;14.75;;;5.07;;
72127;SDS011;60000;51.030;7.024;2022-10-31T07:58:16;13.48;;;5.10;;
72127;SDS011;60000;51.030;7.024;2022-10-31T08:00:42;14.95;;;5.93;;
72127;SDS011;60000;51.030;7.024;2022-10-31T08:03:18;14.27;;;5.20;;
72127;SDS011;60000;51.030;7.024;2022-10-31T08:05:44;13.30;;;5.15;;
72127;SDS011;60000;51.030;7.024;2022-10-31T08:08:11;14.90;;;5.38;;
72127;SDS011;60000;51.030;7.024;2022-10-31T08:10:37;15.75;;;5.10;;
72127;SDS011;60000;51.030;7.024;2022-10-31T08:13:05;16.92;;;5.25;;
72127;SDS011;60000;51.030;7.024;2022-10-31T08:15:32;13.15;;;4.80;;
72127;SDS011;60000;51.030;7.024;2022-10-31T08:17:59;13.73;;;5.50;;
72127;SDS011;60000;51.030;7.024;2022-10-31T08:20:24;15.57;;;5.35;;
72127;SDS011;60000;51.030;7.024;2022-10-31T08:23:00;14.03;;;4.63;;
72127;SDS011;60000;51.030;7.024;2022-10-31T08:25:27;12.75;;;5.22;;
72127;SDS011;60000;51.030;7.024;2022-10-31T08:27:54;13.10;;;5.32;;
72127;SDS011;60000;51.030;7.024;2022-10-31T08:30:21;14.00;;;6.05;;
72127;SDS011;60000;51.030;7.024;2022-10-31T08:32:47;13.23;;;5.20;;
72127;SDS011;60000;51.030;7.024;2022-10-31T08:35:21;11.50;;;5.30;;
72127;SDS011;60000;51.030;7.024;2022-10-31T08:37:51;15.43;;;5.10;;
72127;SDS011;60000;51.030;7.024;2022-10-31T08:40:17;13.95;;;5.68;;
72127;SDS011;60000;51.030;7.024;2022-10-31T08:42:42;11.40;;;5.00;;
72127;SDS011;60000;51.030;7.024;2022-10-31T08:45:08;11.93;;;4.90;;
72127;SDS011;60000;51.030;7.024;2022-10-31T08:47:33;16.95;;;5.50;;
72127;SDS011;60000;51.030;7.024;2022-10-31T08:49:59;11.87;;;4.87;;
72127;SDS011;60000;51.030;7.024;2022-10-31T08:52:24;11.87;;;5.27;;
72127;SDS011;60000;51.030;7.024;2022-10-31T08:54:50;16.63;;;5.07;;
72127;SDS011;60000;51.030;7.024;2022-10-31T08:57:15;14.53;;;5.37;;
72127;SDS011;60000;51.030;7.024;2022-10-31T08:59:41;12.53;;;4.77;;
72127;SDS011;60000;51.030;7.024;2022-10-31T09:02:07;12.17;;;5.03;;
72127;SDS011;60000;51.030;7.024;2022-10-31T09:04:32;11.85;;;4.80;;
72127;SDS011;60000;51.030;7.024;2022-10-31T09:06:57;12.60;;;5.43;;
72127;SDS011;60000;51.030;7.024;2022-10-31T09:09:23;12.13;;;4.87;;
72127;SDS011;60000;51.030;7.024;2022-10-31T09:11:48;14.30;;;5.43;;
72127;SDS011;60000;51.030;7.024;2022-10-31T09:14:13;16.07;;;5.37;;
72127;SDS011;60000;51.030;7.024;2022-10-31T09:16:38;14.37;;;5.30;;
72127;SDS011;60000;51.030;7.024;2022-10-31T09:19:04;15.73;;;4.72;;
72127;SDS011;60000;51.030;7.024;2022-10-31T09:21:29;12.30;;;4.80;;
72127;SDS011;60000;51.030;7.024;2022-10-31T09:23:54;15.27;;;5.07;;
72127;SDS011;60000;51.030;7.024;2022-10-31T09:26:20;15.40;;;5.03;;
72127;SDS011;60000;51.030;7.024;2022-10-31T09:28:46;13.57;;;4.88;;
72127;SDS011;60000;51.030;7.024;2022-10-31T09:31:11;13.17;;;5.07;;
72127;SDS011;60000;51.030;7.024;2022-10-31T09:33:37;12.05;;;5.32;;
72127;SDS011;60000;51.030;7.024;2022-10-31T09:36:02;14.40;;;5.27;;
72127;SDS011;60000;51.030;7.024;2022-10-31T09:38:28;11.70;;;5.23;;
72127;SDS011;60000;51.030;7.024;2022-10-31T09:43:34;12.50;;;4.72;;
72127;SDS011;60000;51.030;7.024;2022-10-31T09:46:12;13.65;;;4.25;;
72127;SDS011;60000;51.030;7.024;2022-10-31T09:51:43;13.00;;;4.60;;
72127;SDS011;60000;51.030;7.024;2022-10-31T09:54:18;11.52;;;4.65;;
72127;SDS011;60000;51.030;7.024;2022-10-31T09:56:50;11.13;;;4.88;;
72127;SDS011;60000;51.030;7.024;2022-10-31T09:59:30;10.87;;;4.50;;
72127;SDS011;60000;51.030;7.024;2022-10-31T10:02:00;11.90;;;4.87;;
72127;SDS011;60000;51.030;7.024;2022-10-31T10:04:58;13.80;;;5.13;;
72127;SDS011;60000;51.030;7.024;2022-10-31T10:07:30;10.82;;;4.40;;
72127;SDS011;60000;51.030;7.024;2022-10-31T10:09:58;13.32;;;4.80;;
72127;SDS011;60000;51.030;7.024;2022-10-31T10:12:34;16.70;;;4.88;;
72127;SDS011;60000;51.030;7.024;2022-10-31T10:20:57;12.80;;;5.05;;
72127;SDS011;60000;51.030;7.024;2022-10-31T10:26:19;15.50;;;5.18;;
72127;SDS011;60000;51.030;7.024;2022-10-31T10:28:49;10.70;;;5.30;;
72127;SDS011;60000;51.030;7.024;2022-10-31T10:31:20;14.15;;;5.43;;
72127;SDS011;60000;51.030;7.024;2022-10-31T10:33:57;15.68;;;4.28;;
72127;SDS011;60000;51.030;7.024;2022-10-31T10:36:37;11.27;;;4.90;;
72127;SDS011;60000;51.030;7.024;2022-10-31T10:39:10;11.88;;;4.50;;
72127;SDS011;60000;51.030;7.024;2022-10-31T10:41:44;15.07;;;4.60;;
72127;SDS011;60000;51.030;7.024;2022-10-31T10:44:33;10.13;;;3.90;;
72127;SDS011;60000;51.030;7.024;2022-10-31T10:47:21;10.93;;;3.45;;
72127;SDS011;60000;51.030;7.024;2022-10-31T10:50:14;10.95;;;4.22;;
72127;SDS011;60000;51.030;7.024;2022-10-31T10:55:40;15.93;;;3.77;;
72127;SDS011;60000;51.030;7.024;2022-10-31T10:58:15;10.80;;;3.40;;
72127;SDS011;60000;51.030;7.024;2022-10-31T11:00:41;10.77;;;3.70;;
72127;SDS011;60000;51.030;7.024;2022-10-31T11:03:11;17.07;;;3.90;;
72127;SDS011;60000;51.030;7.024;2022-10-31T11:05:53;11.38;;;3.65;;
72127;SDS011;60000;51.030;7.024;2022-10-31T11:08:34;10.50;;;4.18;;
72127;SDS011;60000;51.030;7.024;2022-10-31T11:13:28;14.82;;;3.95;;
72127;SDS011;60000;51.030;7.024;2022-10-31T11:18:29;13.93;;;3.70;;
72127;SDS011;60000;51.030;7.024;2022-10-31T11:20:57;9.40;;;3.80;;
72127;SDS011;60000;51.030;7.024;2022-10-31T11:23:26;10.87;;;3.50;;
72127;SDS011;60000;51.030;7.024;2022-10-31T11:28:22;10.63;;;3.50;;
72127;SDS011;60000;51.030;7.024;2022-10-31T11:30:49;11.63;;;3.50;;
72127;SDS011;60000;51.030;7.024;2022-10-31T11:33:21;14.38;;;3.55;;
72127;SDS011;60000;51.030;7.024;2022-10-31T11:36:02;11.75;;;3.80;;
72127;SDS011;60000;51.030;7.024;2022-10-31T11:38:42;15.55;;;3.40;;
72127;SDS011;60000;51.030;7.024;2022-10-31T11:41:12;10.23;;;4.15;;
72127;SDS011;60000;51.030;7.024;2022-10-31T11:43:45;16.33;;;3.70;;
72127;SDS011;60000;51.030;7.024;2022-10-31T11:46:27;7.32;;;3.30;;
72127;SDS011;60000;51.030;7.024;2022-10-31T11:48:58;9.07;;;3.35;;
72127;SDS011;60000;51.030;7.024;2022-10-31T11:51:26;11.50;;;3.50;;
72127;SDS011;60000;51.030;7.024;2022-10-31T11:53:55;8.93;;;3.25;;
72127;SDS011;60000;51.030;7.024;2022-10-31T11:56:23;10.23;;;3.17;;
72127;SDS011;60000;51.030;7.024;2022-10-31T11:59:01;9.20;;;2.93;;
72127;SDS011;60000;51.030;7.024;2022-10-31T12:01:28;11.88;;;3.13;;
72127;SDS011;60000;51.030;7.024;2022-10-31T12:06:40;12.27;;;3.40;;
72127;SDS011;60000;51.030;7.024;2022-10-31T12:17:09;9.32;;;3.20;;
72127;SDS011;60000;51.030;7.024;2022-10-31T12:19:59;11.43;;;3.28;;
72127;SDS011;60000;51.030;7.024;2022-10-31T12:34:02;12.23;;;2.70;;
72127;SDS011;60000;51.030;7.024;2022-10-31T12:39:40;7.97;;;3.37;;
72127;SDS011;60000;51.030;7.024;2022-10-31T13:00:43;9.75;;;2.92;;
72127;SDS011;60000;51.030;7.024;2022-10-31T13:03:19;7.27;;;2.83;;
72127;SDS011;60000;51.030;7.024;2022-10-31T13:06:03;12.80;;;2.80;;
72127;SDS011;60000;51.030;7.024;2022-10-31T13:08:41;9.98;;;3.03;;
72127;SDS011;60000;51.030;7.024;2022-10-31T13:11:14;10.27;;;3.47;;
72127;SDS011;60000;51.030;7.024;2022-10-31T13:16:43;11.43;;;3.07;;
72127;SDS011;60000;51.030;7.024;2022-10-31T13:19:16;7.85;;;2.95;;
72127;SDS011;60000;51.030;7.024;2022-10-31T13:24:44;8.15;;;2.88;;
72127;SDS011;60000;51.030;7.024;2022-10-31T13:27:24;12.45;;;3.20;;
72127;SDS011;60000;51.030;7.024;2022-10-31T13:30:02;14.13;;;3.07;;
72127;SDS011;60000;51.030;7.024;2022-10-31T13:32:38;10.30;;;3.03;;
72127;SDS011;60000;51.030;7.024;2022-10-31T13:35:20;11.82;;;2.97;;
72127;SDS011;60000;51.030;7.024;2022-10-31T13:40:50;10.55;;;3.10;;
72127;SDS011;60000;51.030;7.024;2022-10-31T13:43:51;9.23;;;2.80;;
72127;SDS011;60000;51.030;7.024;2022-10-31T13:48:58;9.98;;;2.45;;
72127;SDS011;60000;51.030;7.024;2022-10-31T13:51:24;11.60;;;2.50;;
72127;SDS011;60000;51.030;7.024;2022-10-31T13:54:00;12.30;;;2.80;;
72127;SDS011;60000;51.030;7.024;2022-10-31T13:56:32;7.40;;;2.63;;
72127;SDS011;60000;51.030;7.024;2022-10-31T13:59:14;11.70;;;2.80;;
72127;SDS011;60000;51.030;7.024;2022-10-31T14:01:45;10.45;;;3.17;;
72127;SDS011;60000;51.030;7.024;2022-10-31T14:04:16;7.53;;;2.55;;
72127;SDS011;60000;51.030;7.024;2022-10-31T14:06:51;9.20;;;2.77;;
72127;SDS011;60000;51.030;7.024;2022-10-31T14:09:23;9.65;;;2.42;;
72127;SDS011;60000;51.030;7.024;2022-10-31T14:11:49;7.13;;;2.80;;
72127;SDS011;60000;51.030;7.024;2022-10-31T14:14:15;11.10;;;3.53;;
72127;SDS011;60000;51.030;7.024;2022-10-31T14:16:43;9.63;;;3.10;;
72127;SDS011;60000;51.030;7.024;2022-10-31T14:19:17;9.53;;;2.93;;
72127;SDS011;60000;51.030;7.024;2022-10-31T14:21:45;12.23;;;2.80;;
72127;SDS011;60000;51.030;7.024;2022-10-31T14:26:56;9.85;;;2.67;;
72127;SDS011;60000;51.030;7.024;2022-10-31T14:47:49;10.60;;;3.15;;
72127;SDS011;60000;51.030;7.024;2022-10-31T14:50:20;10.48;;;2.70;;
72127;SDS011;60000;51.030;7.024;2022-10-31T14:52:50;8.00;;;2.70;;
72127;SDS011;60000;51.030;7.024;2022-10-31T14:55:21;11.77;;;3.28;;
72127;SDS011;60000;51.030;7.024;2022-10-31T14:57:49;12.03;;;2.83;;
72127;SDS011;60000;51.030;7.024;2022-10-31T15:00:21;8.27;;;2.38;;
72127;SDS011;60000;51.030;7.024;2022-10-31T15:02:55;9.30;;;2.63;;
72127;SDS011;60000;51.030;7.024;2022-10-31T15:05:22;9.80;;;2.35;;
72127;SDS011;60000;51.030;7.024;2022-10-31T15:07:53;12.52;;;3.10;;
72127;SDS011;60000;51.030;7.024;2022-10-31T15:10:30;11.43;;;2.93;;
72127;SDS011;60000;51.030;7.024;2022-10-31T15:13:08;8.55;;;2.53;;
72127;SDS011;60000;51.030;7.024;2022-10-31T15:15:44;10.52;;;2.92;;
72127;SDS011;60000;51.030;7.024;2022-10-31T15:18:14;11.20;;;2.80;;
72127;SDS011;60000;51.030;7.024;2022-10-31T15:20:42;12.23;;;2.73;;
72127;SDS011;60000;51.030;7.024;2022-10-31T15:23:10;9.07;;;2.70;;
72127;SDS011;60000;51.030;7.024;2022-10-31T15:25:58;16.48;;;2.80;;
72127;SDS011;60000;51.030;7.024;2022-10-31T15:28:27;9.73;;;2.80;;
72127;SDS011;60000;51.030;7.024;2022-10-31T15:30:54;9.53;;;3.17;;
72127;SDS011;60000;51.030;7.024;2022-10-31T15:33:22;7.53;;;2.58;;
72127;SDS011;60000;51.030;7.024;2022-10-31T15:36:00;9.75;;;2.38;;
72127;SDS011;60000;51.030;7.024;2022-10-31T15:38:26;10.63;;;2.60;;
72127;SDS011;60000;51.030;7.024;2022-10-31T15:41:00;10.93;;;2.28;;
72127;SDS011;60000;51.030;7.024;2022-10-31T15:43:29;7.05;;;2.20;;
72127;SDS011;60000;51.030;7.024;2022-10-31T15:45:59;12.55;;;2.40;;
72127;SDS011;60000;51.030;7.024;2022-10-31T15:48:26;9.63;;;2.22;;
72127;SDS011;60000;51.030;7.024;2022-10-31T15:50:52;12.47;;;2.50;;
72127;SDS011;60000;51.030;7.024;2022-10-31T15:53:25;8.77;;;2.88;;
72127;SDS011;60000;51.030;7.024;2022-10-31T15:56:01;11.18;;;3.17;;
72127;SDS011;60000;51.030;7.024;2022-10-31T15:58:30;12.57;;;3.00;;
72127;SDS011;60000;51.030;7.024;2022-10-31T16:01:18;10.23;;;2.80;;
72127;SDS011;60000;51.030;7.024;2022-10-31T16:03:56;9.52;;;2.95;;
72127;SDS011;60000;51.030;7.024;2022-10-31T16:06:37;10.07;;;2.50;;
72127;SDS011;60000;51.030;7.024;2022-10-31T16:09:03;11.67;;;2.90;;
72127;SDS011;60000;51.030;7.024;2022-10-31T16:11:45;9.18;;;2.78;;
72127;SDS011;60000;51.030;7.024;2022-10-31T16:16:40;10.30;;;2.93;;
72127;SDS011;60000;51.030;7.024;2022-10-31T16:19:13;9.53;;;2.87;;
72127;SDS011;60000;51.030;7.024;2022-10-31T16:21:44;10.70;;;2.70;;
72127;SDS011;60000;51.030;7.024;2022-10-31T16:24:16;9.18;;;2.53;;
72127;SDS011;60000;51.030;7.024;2022-10-31T16:26:49;8.77;;;2.78;;
72127;SDS011;60000;51.030;7.024;2022-10-31T16:32:03;16.57;;;3.20;;
72127;SDS011;60000;51.030;7.024;2022-10-31T16:34:28;9.52;;;2.83;;
72127;SDS011;60000;51.030;7.024;2022-10-31T16:36:54;9.60;;;2.87;;
72127;SDS011;60000;51.030;7.024;2022-10-31T16:39:19;8.97;;;3.37;;
72127;SDS011;60000;51.030;7.024;2022-10-31T16:41:46;9.20;;;2.88;;
72127;SDS011;60000;51.030;7.024;2022-10-31T16:44:17;10.33;;;3.07;;
72127;SDS011;60000;51.030;7.024;2022-10-31T16:46:46;8.90;;;2.50;;
72127;SDS011;60000;51.030;7.024;2022-10-31T16:49:11;14.80;;;3.43;;
72127;SDS011;60000;51.030;7.024;2022-10-31T16:51:37;8.73;;;2.50;;
72127;SDS011;60000;51.030;7.024;2022-10-31T16:54:02;8.77;;;2.97;;
72127;SDS011;60000;51.030;7.024;2022-10-31T16:56:28;9.83;;;2.47;;
72127;SDS011;60000;51.030;7.024;2022-10-31T16:58:57;9.50;;;2.55;;
72127;SDS011;60000;51.030;7.024;2022-10-31T17:01:24;7.32;;;2.42;;